createdAt,value
2017-10-20T00:02:23.221Z,19.30
2017-10-20T00:04:50.935Z,15.67
2017-10-20T00:07:19.198Z,15.67
2017-10-20T00:09:46.928Z,17.40
2017-10-20T00:12:14.827Z,15.93
2017-10-20T00:14:44.523Z,17.00
2017-10-20T00:17:14.528Z,19.80
2017-10-20T00:19:43.706Z,18.23
2017-10-20T00:22:12.538Z,15.63
2017-10-20T00:24:41.313Z,14.43
2017-10-20T00:27:10.092Z,19.33
2017-10-20T00:29:37.971Z,16.27
2017-10-20T00:32:06.340Z,16.70
2017-10-20T00:34:34.281Z,15.43
2017-10-20T00:37:02.875Z,18.53
2017-10-20T00:39:31.543Z,14.07
2017-10-20T00:42:00.367Z,16.13
2017-10-20T00:44:28.236Z,17.20
2017-10-20T00:46:55.948Z,15.87
2017-10-20T00:49:23.511Z,21.37
2017-10-20T00:51:51.265Z,16.60
2017-10-20T00:54:19.776Z,16.17
2017-10-20T00:56:47.679Z,14.70
2017-10-20T00:59:15.931Z,15.73
2017-10-20T01:01:43.509Z,20.10
2017-10-20T01:04:11.109Z,24.57
2017-10-20T01:06:40.774Z,21.47
2017-10-20T01:09:10.260Z,18.33
2017-10-20T01:11:37.851Z,19.20
2017-10-20T01:14:05.429Z,17.53
2017-10-20T01:16:34.030Z,20.00
2017-10-20T01:19:01.575Z,19.20
2017-10-20T01:21:29.207Z,16.20
2017-10-20T01:23:56.789Z,19.97
2017-10-20T01:26:24.446Z,19.27
2017-10-20T01:28:52.578Z,22.00
2017-10-20T01:31:21.056Z,18.83
2017-10-20T01:33:48.792Z,17.73
2017-10-20T01:38:51.728Z,24.40
2017-10-20T01:41:20.760Z,27.87
2017-10-20T01:43:50.143Z,30.33
2017-10-20T01:46:17.892Z,29.10
2017-10-20T01:48:47.205Z,26.53
2017-10-20T01:51:14.998Z,32.20
2017-10-20T01:53:42.983Z,25.83
2017-10-20T01:56:12.531Z,21.50
2017-10-20T01:58:40.255Z,17.10
2017-10-20T02:01:08.036Z,21.23
2017-10-20T02:03:35.943Z,18.73
2017-10-20T02:06:03.785Z,23.50
2017-10-20T02:08:32.654Z,28.83
2017-10-20T02:11:01.452Z,18.27
2017-10-20T02:13:29.851Z,20.43
2017-10-20T02:15:57.469Z,17.10
2017-10-20T02:18:26.193Z,23.20
2017-10-20T02:20:53.917Z,18.43
2017-10-20T02:23:21.539Z,20.80
2017-10-20T02:25:49.392Z,19.40
2017-10-20T02:28:18.332Z,16.33
2017-10-20T02:30:45.991Z,15.50
2017-10-20T02:33:14.525Z,17.87
2017-10-20T02:35:42.247Z,19.87
2017-10-20T02:38:11.032Z,17.90
2017-10-20T02:40:39.979Z,18.97
2017-10-20T02:43:08.336Z,16.03
2017-10-20T02:45:36.688Z,16.53
2017-10-20T02:48:04.399Z,17.47
2017-10-20T02:50:33.034Z,18.10
2017-10-20T02:53:01.108Z,17.10
2017-10-20T02:55:30.729Z,17.23
2017-10-20T02:57:58.870Z,19.77
2017-10-20T03:00:27.401Z,19.70
2017-10-20T03:02:55.238Z,16.37
2017-10-20T03:05:22.828Z,18.47
2017-10-20T03:07:50.445Z,22.10
2017-10-20T03:10:18.046Z,20.47
2017-10-20T03:12:45.610Z,18.70
2017-10-20T03:15:15.083Z,19.83
2017-10-20T03:17:42.696Z,17.77
2017-10-20T03:20:10.255Z,20.03
2017-10-20T03:22:37.812Z,15.70
2017-10-20T03:25:05.398Z,20.40
2017-10-20T03:27:33.058Z,17.93
2017-10-20T03:30:02.203Z,19.20
2017-10-20T03:32:30.133Z,17.00
2017-10-20T03:34:58.835Z,19.90
2017-10-20T03:37:26.649Z,13.63
2017-10-20T03:39:55.067Z,20.87
2017-10-20T03:42:23.572Z,16.77
2017-10-20T03:44:51.268Z,22.30
2017-10-20T03:47:19.022Z,19.67
2017-10-20T03:49:46.677Z,19.93
2017-10-20T03:52:15.333Z,14.90
2017-10-20T03:54:43.743Z,17.07
2017-10-20T03:57:12.188Z,13.87
2017-10-20T03:59:40.769Z,17.33
2017-10-20T04:02:08.502Z,16.23
2017-10-20T04:04:36.285Z,17.80
2017-10-20T04:07:04.832Z,16.33
2017-10-20T04:09:32.405Z,14.80
2017-10-20T04:12:00.054Z,21.67
2017-10-20T04:14:31.115Z,18.13
2017-10-20T04:16:59.469Z,16.77
2017-10-20T04:19:26.993Z,18.70
2017-10-20T04:21:54.789Z,18.43
2017-10-20T04:24:22.359Z,27.90
2017-10-20T04:26:49.976Z,15.20
2017-10-20T04:29:18.250Z,21.30
2017-10-20T04:31:45.889Z,19.30
2017-10-20T04:34:13.503Z,19.90
2017-10-20T04:36:41.054Z,19.07
2017-10-20T04:39:09.565Z,19.23
2017-10-20T04:41:37.114Z,19.37
2017-10-20T04:44:04.792Z,20.23
2017-10-20T04:46:32.387Z,24.00
2017-10-20T04:49:00.098Z,18.30
2017-10-20T04:51:28.479Z,19.20
2017-10-20T04:53:56.225Z,15.90
2017-10-20T04:56:23.745Z,17.93
2017-10-20T04:58:51.545Z,24.03
2017-10-20T05:01:19.083Z,19.63
2017-10-20T05:03:47.212Z,20.67
2017-10-20T05:06:14.923Z,21.70
2017-10-20T05:08:42.531Z,18.60
2017-10-20T05:11:13.530Z,21.47
2017-10-20T05:13:41.877Z,19.20
2017-10-20T05:16:09.707Z,19.97
2017-10-20T05:18:38.051Z,20.00
2017-10-20T05:21:05.635Z,23.10
2017-10-20T05:23:33.153Z,19.77
2017-10-20T05:26:00.778Z,19.63
2017-10-20T05:28:29.287Z,18.97
2017-10-20T05:30:57.746Z,17.50
2017-10-20T05:33:25.657Z,19.83
2017-10-20T05:35:53.207Z,17.60
2017-10-20T05:38:20.804Z,19.90
2017-10-20T05:40:48.317Z,22.03
2017-10-20T05:43:15.796Z,22.00
2017-10-20T05:45:43.292Z,20.23
2017-10-20T05:48:10.848Z,19.50
2017-10-20T05:50:38.388Z,17.93
2017-10-20T05:53:05.912Z,22.13
2017-10-20T05:55:33.473Z,23.17
2017-10-20T05:58:01.078Z,26.10
2017-10-20T06:00:28.775Z,15.77
2017-10-20T06:02:59.164Z,22.73
2017-10-20T06:05:26.722Z,23.87
2017-10-20T06:07:54.345Z,25.87
2017-10-20T06:10:21.976Z,24.27
2017-10-20T06:12:49.473Z,21.73
2017-10-20T06:15:17.063Z,21.83
2017-10-20T06:17:44.572Z,17.23
2017-10-20T06:20:12.124Z,27.17
2017-10-20T06:22:39.638Z,19.27
2017-10-20T06:25:07.194Z,27.90
2017-10-20T06:27:34.740Z,20.57
2017-10-20T06:30:02.282Z,20.90
2017-10-20T06:32:29.851Z,22.00
2017-10-20T06:34:57.410Z,16.70
2017-10-20T06:37:24.967Z,21.23
2017-10-20T06:39:52.483Z,22.80
2017-10-20T06:42:20.040Z,21.33
2017-10-20T06:44:47.602Z,21.23
2017-10-20T06:47:15.195Z,24.03
2017-10-20T06:49:42.791Z,21.33
2017-10-20T06:52:10.392Z,19.90
2017-10-20T06:54:37.969Z,22.33
2017-10-20T06:57:05.530Z,23.13
2017-10-20T06:59:33.162Z,19.40
2017-10-20T07:02:00.734Z,22.10
2017-10-20T07:04:28.620Z,20.83
2017-10-20T07:06:56.175Z,17.07
2017-10-20T07:09:24.665Z,25.27
2017-10-20T07:11:52.225Z,20.00
2017-10-20T07:14:19.780Z,18.33
2017-10-20T07:16:47.485Z,22.43
2017-10-20T07:19:16.476Z,20.70
2017-10-20T07:21:43.994Z,21.90
2017-10-20T07:24:11.808Z,19.33
2017-10-20T07:26:39.413Z,20.37
2017-10-20T07:29:07.089Z,26.63
2017-10-20T07:31:34.683Z,15.80
2017-10-20T07:34:03.239Z,21.10
2017-10-20T07:36:32.104Z,22.57
2017-10-20T07:39:02.477Z,21.27
2017-10-20T07:41:30.077Z,18.50
2017-10-20T07:43:57.625Z,19.60
2017-10-20T07:46:26.113Z,17.53
2017-10-20T07:48:53.982Z,21.80
2017-10-20T07:51:21.517Z,18.27
2017-10-20T07:53:49.049Z,22.23
2017-10-20T07:56:16.552Z,24.87
2017-10-20T07:58:44.131Z,17.57
2017-10-20T08:01:11.649Z,20.00
2017-10-20T08:03:39.181Z,25.00
2017-10-20T08:06:06.762Z,21.47
2017-10-20T08:08:34.539Z,20.30
2017-10-20T08:11:02.082Z,19.00
2017-10-20T08:13:29.714Z,21.00
2017-10-20T08:15:57.248Z,23.00
2017-10-20T08:18:25.464Z,18.13
2017-10-20T08:20:53.027Z,23.63
2017-10-20T08:23:20.587Z,20.13
2017-10-20T08:25:50.424Z,17.67
2017-10-20T08:28:17.948Z,19.87
2017-10-20T08:30:45.816Z,26.67
2017-10-20T08:33:13.372Z,28.83
2017-10-20T08:35:41.707Z,25.93
2017-10-20T08:38:09.388Z,25.73
2017-10-20T08:40:36.958Z,28.57
2017-10-20T08:43:04.518Z,22.43
2017-10-20T08:45:32.026Z,26.43
2017-10-20T08:47:59.534Z,17.67
2017-10-20T08:50:27.108Z,22.90
2017-10-20T08:52:54.633Z,21.00
2017-10-20T08:55:22.204Z,18.13
2017-10-20T08:57:50.563Z,21.67
2017-10-20T09:00:18.961Z,21.87
2017-10-20T09:02:47.357Z,18.93
2017-10-20T09:05:14.876Z,20.97
2017-10-20T09:07:43.179Z,23.60
2017-10-20T09:10:10.769Z,31.40
2017-10-20T09:12:41.091Z,24.57
2017-10-20T09:15:08.631Z,26.43
2017-10-20T09:17:36.175Z,22.73
2017-10-20T09:20:03.735Z,23.83
2017-10-20T09:22:31.292Z,29.27
2017-10-20T09:24:58.858Z,30.57
2017-10-20T09:27:26.445Z,21.40
2017-10-20T09:29:54.003Z,19.27
2017-10-20T09:32:21.562Z,20.57
2017-10-20T09:34:49.058Z,19.50
2017-10-20T09:37:16.696Z,24.93
2017-10-20T09:39:44.260Z,22.10
2017-10-20T09:42:11.821Z,21.57
2017-10-20T09:44:39.407Z,26.03
2017-10-20T09:47:07.742Z,21.30
2017-10-20T09:49:36.187Z,18.93
2017-10-20T09:52:03.718Z,18.40
2017-10-20T09:54:31.279Z,17.43
2017-10-20T09:56:58.944Z,27.00
2017-10-20T09:59:26.545Z,21.67
2017-10-20T10:01:54.667Z,19.07
2017-10-20T10:04:22.296Z,17.47
2017-10-20T10:06:49.913Z,19.77
2017-10-20T10:09:17.443Z,20.33
2017-10-20T10:11:44.947Z,20.77
2017-10-20T10:14:12.440Z,14.70
2017-10-20T10:16:40.008Z,7.63
2017-10-20T10:19:07.513Z,11.93
2017-10-20T10:21:35.124Z,7.57
2017-10-20T10:24:02.585Z,8.13
2017-10-20T10:26:30.110Z,10.17
2017-10-20T10:28:59.143Z,9.37
2017-10-20T10:31:27.921Z,8.00
2017-10-20T10:33:55.952Z,4.43
2017-10-20T10:36:23.632Z,5.87
2017-10-20T10:38:51.448Z,8.10
2017-10-20T10:41:19.073Z,14.27
2017-10-20T10:43:47.147Z,10.53
2017-10-20T10:46:15.127Z,9.30
2017-10-20T10:48:45.803Z,11.50
2017-10-20T10:51:13.477Z,8.50
2017-10-20T10:53:41.159Z,5.95
2017-10-20T10:56:09.464Z,8.30
2017-10-20T10:58:38.583Z,8.60
2017-10-20T11:01:06.428Z,7.53
2017-10-20T11:03:34.110Z,9.60
2017-10-20T11:06:13.432Z,9.30
2017-10-20T11:08:52.965Z,7.87
2017-10-20T11:11:32.508Z,7.17
2017-10-20T11:14:00.093Z,12.03
2017-10-20T11:16:27.789Z,5.67
2017-10-20T11:18:56.630Z,7.80
2017-10-20T11:21:24.344Z,7.83
2017-10-20T11:23:52.978Z,7.23
2017-10-20T11:26:21.609Z,7.03
2017-10-20T11:28:49.436Z,8.90
2017-10-20T11:31:17.110Z,6.83
2017-10-20T11:33:44.854Z,9.23
2017-10-20T11:36:12.614Z,7.57
2017-10-20T11:38:40.259Z,6.03
2017-10-20T11:41:08.663Z,8.20
2017-10-20T11:43:36.299Z,6.83
2017-10-20T11:46:03.962Z,8.17
2017-10-20T11:48:31.528Z,7.50
2017-10-20T11:50:59.207Z,6.40
2017-10-20T11:53:27.303Z,14.23
2017-10-20T11:55:56.396Z,10.73
2017-10-20T11:58:24.957Z,9.73
2017-10-20T12:00:53.502Z,11.60
2017-10-20T12:03:21.151Z,7.30
2017-10-20T12:05:48.687Z,9.17
2017-10-20T12:08:16.224Z,7.10
2017-10-20T12:10:43.727Z,11.73
2017-10-20T12:13:11.504Z,9.90
2017-10-20T12:15:39.078Z,9.70
2017-10-20T12:18:06.722Z,7.20
2017-10-20T12:20:34.329Z,11.03
2017-10-20T12:23:01.849Z,7.90
2017-10-20T12:25:29.611Z,7.73
2017-10-20T12:27:57.207Z,8.20
2017-10-20T12:30:24.705Z,6.50
2017-10-20T12:32:52.337Z,8.70
2017-10-20T12:35:20.389Z,9.80
2017-10-20T12:37:48.092Z,9.17
2017-10-20T12:40:15.677Z,10.27
2017-10-20T12:42:43.229Z,8.40
2017-10-20T12:45:10.829Z,8.80
2017-10-20T12:47:39.356Z,14.67
2017-10-20T12:50:07.136Z,8.90
2017-10-20T12:52:35.993Z,8.23
2017-10-20T12:55:03.595Z,9.10
2017-10-20T12:57:31.128Z,10.30
2017-10-20T12:59:58.669Z,8.90
2017-10-20T13:02:27.188Z,17.87
2017-10-20T13:04:54.881Z,10.17
2017-10-20T13:07:22.415Z,9.10
2017-10-20T13:09:50.025Z,7.60
2017-10-20T13:12:18.430Z,8.13
2017-10-20T13:14:47.296Z,10.30
2017-10-20T13:17:15.097Z,8.77
2017-10-20T13:19:42.883Z,8.20
2017-10-20T13:22:10.519Z,10.87
2017-10-20T13:24:38.278Z,8.17
2017-10-20T13:27:06.154Z,9.87
2017-10-20T13:29:33.693Z,12.97
2017-10-20T13:32:01.205Z,10.03
2017-10-20T13:34:28.744Z,10.43
2017-10-20T13:36:56.260Z,11.00
2017-10-20T13:39:23.865Z,7.70
2017-10-20T13:41:52.465Z,8.40
2017-10-20T13:44:20.063Z,9.63
2017-10-20T13:46:47.728Z,7.63
2017-10-20T13:49:15.279Z,9.73
2017-10-20T13:51:42.838Z,10.23
2017-10-20T13:54:10.716Z,8.17
2017-10-20T13:56:38.240Z,7.07
2017-10-20T13:59:05.775Z,8.50
2017-10-20T14:01:33.295Z,8.60
2017-10-20T14:04:01.378Z,8.60
2017-10-20T14:06:28.967Z,9.00
2017-10-20T14:08:56.570Z,13.70
2017-10-20T14:11:24.129Z,15.30
2017-10-20T14:13:51.705Z,11.60
2017-10-20T14:16:19.425Z,12.93
2017-10-20T14:18:47.104Z,8.40
2017-10-20T14:21:14.616Z,6.97
2017-10-20T14:23:42.168Z,9.23
2017-10-20T14:26:09.722Z,10.17
2017-10-20T14:28:37.326Z,6.80
2017-10-20T14:31:04.863Z,7.60
2017-10-20T14:33:33.417Z,8.00
2017-10-20T14:36:01.368Z,11.27
2017-10-20T14:38:28.880Z,9.23
2017-10-20T14:40:56.451Z,9.77
2017-10-20T14:43:23.998Z,6.50
2017-10-20T14:45:51.798Z,7.60
2017-10-20T14:48:19.366Z,6.93
2017-10-20T14:50:46.919Z,9.63
2017-10-20T14:53:14.456Z,9.57
2017-10-20T14:55:41.999Z,11.63
2017-10-20T14:58:09.507Z,7.47
2017-10-20T15:00:38.106Z,7.40
2017-10-20T15:03:05.665Z,7.90
2017-10-20T15:05:33.903Z,10.20
2017-10-20T15:08:01.442Z,9.73
2017-10-20T15:10:29.035Z,7.47
2017-10-20T15:12:56.537Z,9.67
2017-10-20T15:15:25.033Z,9.80
2017-10-20T15:17:52.653Z,8.73
2017-10-20T15:20:20.237Z,11.43
2017-10-20T15:22:47.720Z,6.97
2017-10-20T15:25:15.268Z,7.37
2017-10-20T15:27:42.776Z,8.10
2017-10-20T15:30:10.373Z,6.90
2017-10-20T15:32:37.971Z,6.70
2017-10-20T15:35:05.550Z,6.83
2017-10-20T15:37:33.065Z,8.50
2017-10-20T15:40:00.559Z,8.87
2017-10-20T15:42:28.082Z,10.47
2017-10-20T15:44:56.497Z,8.13
2017-10-20T15:47:24.039Z,7.17
2017-10-20T15:49:52.393Z,6.20
2017-10-20T15:52:19.928Z,8.43
2017-10-20T15:54:47.507Z,9.07
2017-10-20T15:57:15.048Z,8.10
2017-10-20T15:59:42.649Z,16.83
2017-10-20T16:02:11.233Z,7.80
2017-10-20T16:04:38.753Z,8.57
2017-10-20T16:07:06.333Z,11.37
2017-10-20T16:09:33.888Z,13.17
2017-10-20T16:12:01.413Z,8.07
2017-10-20T16:14:28.979Z,13.07
2017-10-20T16:16:56.532Z,10.30
2017-10-20T16:19:25.447Z,8.27
2017-10-20T16:21:53.249Z,10.23
2017-10-20T16:24:21.453Z,8.23
2017-10-20T16:26:49.154Z,12.20
2017-10-20T16:29:16.706Z,8.40
2017-10-20T16:31:44.408Z,18.90
2017-10-20T16:34:12.026Z,8.50
2017-10-20T16:36:39.631Z,7.83
2017-10-20T16:39:07.160Z,7.90
2017-10-20T16:41:37.093Z,7.40
2017-10-20T16:44:05.130Z,13.93
2017-10-20T16:46:33.603Z,7.87
2017-10-20T16:49:02.367Z,9.40
2017-10-20T16:51:30.033Z,8.93
2017-10-20T16:53:58.192Z,7.60
2017-10-20T16:56:26.777Z,9.90
2017-10-20T16:58:55.635Z,10.00
2017-10-20T17:01:24.672Z,10.10
2017-10-20T17:03:53.679Z,12.00
2017-10-20T17:06:22.304Z,12.20
2017-10-20T17:08:50.260Z,7.30
2017-10-20T17:11:18.979Z,11.93
2017-10-20T17:13:47.080Z,8.63
2017-10-20T17:16:15.126Z,9.00
2017-10-20T17:18:46.093Z,8.93
2017-10-20T17:21:15.382Z,8.80
2017-10-20T17:23:43.467Z,8.50
2017-10-20T17:26:12.473Z,7.80
2017-10-20T17:28:40.311Z,11.33
2017-10-20T17:31:08.215Z,15.83
2017-10-20T17:33:35.864Z,10.40
2017-10-20T17:36:03.754Z,7.73
2017-10-20T17:38:31.941Z,8.93
2017-10-20T17:41:00.239Z,11.20
2017-10-20T17:43:28.069Z,10.73
2017-10-20T17:45:55.858Z,9.63
2017-10-20T17:48:23.773Z,11.23
2017-10-20T17:50:52.516Z,9.50
2017-10-20T17:53:20.827Z,10.30
2017-10-20T17:55:48.518Z,7.87
2017-10-20T17:58:16.684Z,14.20
2017-10-20T18:00:44.458Z,12.70
2017-10-20T18:03:12.121Z,13.53
2017-10-20T18:05:39.882Z,12.00
2017-10-20T18:08:07.722Z,9.17
2017-10-20T18:10:36.369Z,8.80
2017-10-20T18:13:06.005Z,9.80
2017-10-20T18:15:33.882Z,9.67
2017-10-20T18:18:02.783Z,9.60
2017-10-20T18:20:31.350Z,9.90
2017-10-20T18:22:59.168Z,12.87
2017-10-20T18:25:27.313Z,9.40
2017-10-20T18:27:55.155Z,11.43
2017-10-20T18:30:24.606Z,12.60
2017-10-20T18:32:52.261Z,11.83
2017-10-20T18:35:22.306Z,13.10
2017-10-20T18:37:51.992Z,14.00
2017-10-20T18:40:21.069Z,12.47
2017-10-20T18:42:50.258Z,11.23
2017-10-20T18:45:17.979Z,10.33
2017-10-20T18:47:46.147Z,14.13
2017-10-20T18:50:14.684Z,11.97
2017-10-20T18:52:42.681Z,10.60
2017-10-20T18:55:11.645Z,10.57
2017-10-20T18:57:39.722Z,12.60
2017-10-20T19:00:08.480Z,16.90
2017-10-20T19:02:36.417Z,16.00
2017-10-20T19:05:05.109Z,14.33
2017-10-20T19:07:33.312Z,13.60
2017-10-20T19:10:01.032Z,11.70
2017-10-20T19:12:29.412Z,11.80
2017-10-20T19:14:58.352Z,11.57
2017-10-20T19:17:26.006Z,13.23
2017-10-20T19:19:53.643Z,12.80
2017-10-20T19:22:23.127Z,16.93
2017-10-20T19:24:52.500Z,10.97
2017-10-20T19:27:20.547Z,15.60
2017-10-20T19:29:48.273Z,11.57
2017-10-20T19:32:16.142Z,13.97
2017-10-20T19:34:44.807Z,13.10
2017-10-20T19:37:12.395Z,11.13
2017-10-20T19:39:40.000Z,11.67
2017-10-20T19:42:09.204Z,12.10
2017-10-20T19:44:36.738Z,9.87
2017-10-20T19:47:04.520Z,10.83
2017-10-20T19:49:32.298Z,13.70
2017-10-20T19:52:00.751Z,10.50
2017-10-20T19:54:29.360Z,12.43
2017-10-20T19:56:57.612Z,13.37
2017-10-20T19:59:25.189Z,10.70
2017-10-20T20:01:55.949Z,13.93
2017-10-20T20:04:23.640Z,14.20
2017-10-20T20:06:51.159Z,12.50
2017-10-20T20:09:19.888Z,10.87
2017-10-20T20:11:47.636Z,11.83
2017-10-20T20:14:15.353Z,13.50
2017-10-20T20:16:42.987Z,11.53
2017-10-20T20:19:12.916Z,9.50
2017-10-20T20:21:40.711Z,10.17
2017-10-20T20:24:08.807Z,10.47
2017-10-20T20:26:37.362Z,11.27
2017-10-20T20:29:04.912Z,12.50
2017-10-20T20:31:38.994Z,9.80
2017-10-20T20:34:16.730Z,9.60
2017-10-20T20:36:44.242Z,9.30
2017-10-20T20:39:12.864Z,10.73
2017-10-20T20:41:41.971Z,9.47
2017-10-20T20:44:10.547Z,14.13
2017-10-20T20:46:38.357Z,12.67
2017-10-20T20:49:06.917Z,8.40
2017-10-20T20:51:35.790Z,6.80
2017-10-20T20:54:03.398Z,9.90
2017-10-20T20:56:31.093Z,8.40
2017-10-20T20:58:58.727Z,10.07
2017-10-20T21:01:26.376Z,14.50
2017-10-20T21:03:54.092Z,9.23
2017-10-20T21:06:21.891Z,8.70
2017-10-20T21:08:51.008Z,7.53
2017-10-20T21:11:18.746Z,9.53
2017-10-20T21:13:46.545Z,11.20
2017-10-20T21:16:14.278Z,8.70
2017-10-20T21:18:42.831Z,7.73
2017-10-20T21:21:12.218Z,8.80
2017-10-20T21:23:39.999Z,10.20
2017-10-20T21:26:08.555Z,10.00
2017-10-20T21:28:36.362Z,8.30
2017-10-20T21:31:04.355Z,14.67
2017-10-20T21:33:32.082Z,14.67
2017-10-20T21:35:59.757Z,10.50
2017-10-20T21:38:28.707Z,9.00
2017-10-20T21:40:56.496Z,10.73
2017-10-20T21:43:24.195Z,8.90
2017-10-20T21:45:52.626Z,10.07
2017-10-20T21:48:20.209Z,8.27
2017-10-20T21:50:47.860Z,7.57
2017-10-20T21:53:16.039Z,8.33
2017-10-20T21:55:43.584Z,10.50
2017-10-20T21:58:11.201Z,10.40
2017-10-20T22:00:38.791Z,9.67
2017-10-20T22:03:07.206Z,10.20
2017-10-20T22:05:34.807Z,9.13
2017-10-20T22:08:02.490Z,10.27
2017-10-20T22:10:30.085Z,11.60
2017-10-20T22:12:57.618Z,9.13
2017-10-20T22:15:26.331Z,12.53
2017-10-20T22:17:53.930Z,14.20
2017-10-20T22:20:22.274Z,9.63
2017-10-20T22:22:49.927Z,10.33
2017-10-20T22:25:17.845Z,14.00
2017-10-20T22:27:47.214Z,12.90
2017-10-20T22:30:15.690Z,10.07
2017-10-20T22:32:44.261Z,21.07
2017-10-20T22:35:13.188Z,14.97
2017-10-20T22:37:43.804Z,15.40
2017-10-20T22:40:13.027Z,15.00
2017-10-20T22:42:41.376Z,17.30
2017-10-20T22:45:09.117Z,14.70
2017-10-20T22:47:36.714Z,12.80
2017-10-20T22:50:04.299Z,16.77
2017-10-20T22:52:31.930Z,11.63
2017-10-20T22:54:59.615Z,12.73
2017-10-20T22:57:27.283Z,10.53
2017-10-20T22:59:54.988Z,11.70
2017-10-20T23:02:22.919Z,10.33
2017-10-20T23:04:50.540Z,10.23
2017-10-20T23:07:18.179Z,12.80
2017-10-20T23:09:45.847Z,10.57
2017-10-20T23:12:13.756Z,12.83
2017-10-20T23:14:42.158Z,10.83
2017-10-20T23:17:10.011Z,11.63
2017-10-20T23:19:37.613Z,18.93
2017-10-20T23:22:05.856Z,17.43
2017-10-20T23:24:34.707Z,18.77
2017-10-20T23:27:03.269Z,16.70
2017-10-20T23:29:31.968Z,18.97
2017-10-20T23:31:59.615Z,20.50
2017-10-20T23:34:27.996Z,22.23
2017-10-20T23:36:55.599Z,21.23
2017-10-20T23:39:24.339Z,16.73
2017-10-20T23:41:53.012Z,13.97
2017-10-20T23:44:20.570Z,13.53
2017-10-20T23:46:49.062Z,12.30
2017-10-20T23:49:16.659Z,14.90
2017-10-20T23:51:44.621Z,9.77
2017-10-20T23:54:12.246Z,9.60
2017-10-20T23:56:40.041Z,14.63
2017-10-20T23:59:07.634Z,18.73
